PWSweather.com
Personal Weather Stations
Station Observations
948974
Valtournenche, AostaIT 11028

ValtournencheAostaIT 11028

Lat: 45.877222, Lon: 7.625556

Elevation: 5085.3018

Station Type: PCE-FWS 20

http://www.cdso.it

High Low Average
Temperature 0.0°F0.0°F 0.0°F0.0°F 0.0°F0.0°F
Dew Point 0.0°F0.0°F 0.0°F0.0°F 0.0°F0.0°F
Winds Calm -Calm - Calm Calm Calm Calm
Wind Gusts -- -- --
Humidity 0% 0% 0%
Pressure 0.00 in0.00 in 0.00 in0.00 in -
Precipitation 0.00 in0.0 mm - -
Hour Temp Dew Point Humidity Winds Wind Gusts Pressure Precip Precip Rate Daily Precip Total
12:20 AM 23.5°F-4.7°C 10.6°F-11.9°C 57% 3.0 mph NE4.8 kmh NE 4.0 mph6.4 kmh 30.42 in1030.1 mb 0.00 in0.0 mm 0.00 in0.0 mm 0.00 in0.0 mm
12:41 AM 23.2°F-4.9°C 9.8°F-12.3°C 56% 2.0 mph 3.2 kmh 4.0 mph6.4 kmh 30.44 in1030.8 mb 0.00 in0.0 mm 0.00 in0.0 mm 0.00 in0.0 mm
01:02 AM 23.0°F-5.0°C 9.3°F-12.6°C 55% 1.0 mph S1.6 kmh S 2.0 mph3.2 kmh 30.44 in1030.8 mb 0.00 in0.0 mm 0.00 in0.0 mm 0.00 in0.0 mm
01:23 AM 22.6°F-5.2°C 9.3°F-12.6°C 56% 3.0 mph E4.8 kmh E 4.0 mph6.4 kmh 30.45 in1031.2 mb 0.00 in0.0 mm 0.00 in0.0 mm 0.00 in0.0 mm
01:44 AM 22.1°F-5.5°C 7.2°F-13.8°C 52% 3.0 mph ESE4.8 kmh ESE 4.0 mph6.4 kmh 30.47 in1031.8 mb 0.00 in0.0 mm 0.00 in0.0 mm 0.00 in0.0 mm
02:05 AM 23.0°F-5.0°C 3.9°F-15.6°C 43% 5.0 mph NE8.0 kmh NE 8.0 mph12.9 kmh 30.45 in1031.2 mb 0.00 in0.0 mm 0.00 in0.0 mm 0.00 in0.0 mm
02:26 AM 22.6°F-5.2°C 1.5°F-16.9°C 39% 4.0 mph 6.4 kmh 6.0 mph9.7 kmh 30.45 in1031.2 mb 0.00 in0.0 mm 0.00 in0.0 mm 0.00 in0.0 mm
02:47 AM 22.3°F-5.4°C -0.6°F-18.1°C 36% 7.0 mph NE11.3 kmh NE 9.0 mph14.5 kmh 30.44 in1030.8 mb 0.00 in0.0 mm 0.00 in0.0 mm 0.00 in0.0 mm
03:08 AM 23.9°F-4.5°C -5.9°F-21.1°C 26% 7.0 mph NE11.3 kmh NE 8.0 mph12.9 kmh 30.43 in1030.5 mb 0.00 in0.0 mm 0.00 in0.0 mm 0.00 in0.0 mm
03:29 AM 22.3°F-5.4°C -5.1°F-20.6°C 29% 2.0 mph NE3.2 kmh NE 4.0 mph6.4 kmh 30.45 in1031.2 mb 0.00 in0.0 mm 0.00 in0.0 mm 0.00 in0.0 mm
03:50 AM 20.8°F-6.2°C 0.9°F-17.3°C 41% 2.0 mph NE3.2 kmh NE 3.0 mph4.8 kmh 30.46 in1031.5 mb 0.00 in0.0 mm 0.00 in0.0 mm 0.00 in0.0 mm
04:11 AM 19.6°F-6.9°C 1.7°F-16.8°C 45% 2.0 mph NW3.2 kmh NW 3.0 mph4.8 kmh 30.48 in1032.2 mb 0.00 in0.0 mm 0.00 in0.0 mm 0.00 in0.0 mm
04:32 AM 18.9°F-7.3°C -0.4°F-18.0°C 42% 3.0 mph NW4.8 kmh NW 4.0 mph6.4 kmh 30.48 in1032.2 mb 0.00 in0.0 mm 0.00 in0.0 mm 0.00 in0.0 mm
04:53 AM 19.4°F-7.0°C 1.6°F-16.9°C 45% 2.0 mph NW3.2 kmh NW 2.0 mph3.2 kmh 30.45 in1031.2 mb 0.00 in0.0 mm 0.00 in0.0 mm 0.00 in0.0 mm
05:14 AM 19.9°F-6.7°C -0.4°F-18.0°C 40% 2.0 mph NW3.2 kmh NW 4.0 mph6.4 kmh 30.43 in1030.5 mb 0.00 in0.0 mm 0.00 in0.0 mm 0.00 in0.0 mm
05:35 AM 20.5°F-6.4°C -2.2°F-19.0°C 36% 4.0 mph WNW6.4 kmh WNW 6.0 mph9.7 kmh 30.41 in1029.8 mb 0.00 in0.0 mm 0.00 in0.0 mm 0.00 in0.0 mm
05:56 AM 21.0°F-6.1°C -2.9°F-19.4°C 34% 2.0 mph 3.2 kmh 4.0 mph6.4 kmh 30.40 in1029.5 mb 0.00 in0.0 mm 0.00 in0.0 mm 0.00 in0.0 mm
06:17 AM 21.6°F-5.8°C -5.0°F-20.6°C 30% 4.0 mph 6.4 kmh 9.0 mph14.5 kmh 30.39 in1029.1 mb 0.00 in0.0 mm 0.00 in0.0 mm 0.00 in0.0 mm
06:38 AM 22.1°F-5.5°C -6.7°F-21.5°C 27% 6.0 mph NW9.7 kmh NW 8.0 mph12.9 kmh 30.39 in1029.1 mb 0.00 in0.0 mm 0.00 in0.0 mm 0.00 in0.0 mm
06:59 AM 23.4°F-4.8°C -8.0°F-22.2°C 24% 2.0 mph NW3.2 kmh NW 4.0 mph6.4 kmh 30.37 in1028.4 mb 0.00 in0.0 mm 0.00 in0.0 mm 0.00 in0.0 mm
07:20 AM 21.9°F-5.6°C -6.9°F-21.6°C 27% 4.0 mph NW6.4 kmh NW 6.0 mph9.7 kmh 30.38 in1028.8 mb 0.00 in0.0 mm 0.00 in0.0 mm 0.00 in0.0 mm
07:41 AM 21.4°F-5.9°C -5.2°F-20.7°C 30% 2.0 mph WNW3.2 kmh WNW 2.0 mph3.2 kmh 30.40 in1029.5 mb 0.00 in0.0 mm 0.00 in0.0 mm 0.00 in0.0 mm
08:02 AM 21.0°F-6.1°C -2.9°F-19.4°C 34% 2.0 mph NW3.2 kmh NW 3.0 mph4.8 kmh 30.41 in1029.8 mb 0.00 in0.0 mm 0.00 in0.0 mm 0.00 in0.0 mm
08:23 AM 21.2°F-6.0°C -2.1°F-18.9°C 35% 4.0 mph NW6.4 kmh NW 6.0 mph9.7 kmh 30.40 in1029.5 mb 0.00 in0.0 mm 0.00 in0.0 mm 0.00 in0.0 mm
08:44 AM 22.5°F-5.3°C -2.9°F-19.4°C 32% 2.0 mph NW3.2 kmh NW 2.0 mph3.2 kmh 30.39 in1029.1 mb 0.00 in0.0 mm 0.00 in0.0 mm 0.00 in0.0 mm
09:05 AM 28.2°F-2.1°C 0.8°F-17.3°C 30% 2.0 mph NW3.2 kmh NW 2.0 mph3.2 kmh 30.32 in1026.8 mb 0.00 in0.0 mm 0.00 in0.0 mm 0.00 in0.0 mm
09:26 AM 37.9°F3.3°C 6.1°F-14.4°C 26% 2.0 mph NW3.2 kmh NW 4.0 mph6.4 kmh 30.20 in1022.7 mb 0.00 in0.0 mm 0.00 in0.0 mm 0.00 in0.0 mm
09:47 AM 35.8°F2.1°C -0.3°F-17.9°C 21% 4.0 mph NW6.4 kmh NW 5.0 mph8.0 kmh 30.23 in1023.7 mb 0.04 in1.0 mm 0.11 in2.8 mm 0.04 in1.0 mm
10:08 AM 38.1°F3.4°C 5.4°F-14.8°C 25% 2.0 mph NW3.2 kmh NW 3.0 mph4.8 kmh 30.21 in1023.0 mb 0.05 in1.3 mm 0.02 in0.5 mm 0.05 in1.3 mm
10:29 AM 35.8°F2.1°C -0.3°F-17.9°C 21% 2.0 mph NW3.2 kmh NW 4.0 mph6.4 kmh 30.24 in1024.0 mb 0.05 in1.3 mm 0.00 in0.0 mm 0.05 in1.3 mm
10:50 AM 37.4°F3.0°C 4.8°F-15.1°C 25% 2.0 mph NW3.2 kmh NW 3.0 mph4.8 kmh 30.21 in1023.0 mb 0.01 in0.3 mm 0.00 in0.0 mm 0.05 in1.3 mm
11:11 AM 37.8°F3.2°C 5.1°F-14.9°C 25% 2.0 mph NW3.2 kmh NW 4.0 mph6.4 kmh 30.21 in1023.0 mb 0.00 in0.0 mm 0.00 in0.0 mm 0.05 in1.3 mm
11:32 AM 35.6°F2.0°C -0.4°F-18.0°C 21% 4.0 mph NW6.4 kmh NW 4.0 mph6.4 kmh 30.23 in1023.7 mb 0.00 in0.0 mm 0.00 in0.0 mm 0.05 in1.3 mm
11:53 AM 37.6°F3.1°C 5.0°F-15.0°C 25% 4.0 mph NW6.4 kmh NW 5.0 mph8.0 kmh 30.20 in1022.7 mb 0.00 in0.0 mm 0.00 in0.0 mm 0.05 in1.3 mm
12:14 PM 39.6°F4.2°C 5.8°F-14.6°C 24% 2.0 mph W3.2 kmh W 4.0 mph6.4 kmh 30.18 in1022.0 mb 0.00 in0.0 mm 0.00 in0.0 mm 0.05 in1.3 mm
12:35 PM 41.2°F5.1°C 6.2°F-14.3°C 23% 2.0 mph SE3.2 kmh SE 4.0 mph6.4 kmh 30.16 in1021.3 mb 0.00 in0.0 mm 0.00 in0.0 mm 0.05 in1.3 mm
12:56 PM 41.2°F5.1°C 6.2°F-14.3°C 23% 3.0 mph SE4.8 kmh SE 4.0 mph6.4 kmh 30.15 in1021.0 mb 0.00 in0.0 mm 0.00 in0.0 mm 0.05 in1.3 mm
01:17 PM 41.2°F5.1°C 7.2°F-13.8°C 24% 4.0 mph SE6.4 kmh SE 8.0 mph12.9 kmh 30.14 in1020.7 mb 0.00 in0.0 mm 0.00 in0.0 mm 0.05 in1.3 mm
01:38 PM 40.8°F4.9°C 7.8°F-13.4°C 25% 3.0 mph SE4.8 kmh SE 5.0 mph8.0 kmh 30.13 in1020.3 mb 0.00 in0.0 mm 0.00 in0.0 mm 0.05 in1.3 mm
01:59 PM 43.3°F6.3°C 8.1°F-13.3°C 23% 4.0 mph SE6.4 kmh SE 8.0 mph12.9 kmh 30.10 in1019.3 mb 0.00 in0.0 mm 0.00 in0.0 mm 0.05 in1.3 mm
02:20 PM 41.2°F5.1°C 8.9°F-12.8°C 26% 7.0 mph NW11.3 kmh NW 9.0 mph14.5 kmh 30.11 in1019.6 mb 0.00 in0.0 mm 0.00 in0.0 mm 0.05 in1.3 mm
02:41 PM 42.6°F5.9°C 9.3°F-12.6°C 25% 6.0 mph S9.7 kmh S 11.0 mph17.7 kmh 30.09 in1019.0 mb 0.00 in0.0 mm 0.00 in0.0 mm 0.05 in1.3 mm
03:02 PM 43.2°F6.2°C 9.8°F-12.3°C 25% 4.0 mph S6.4 kmh S 8.0 mph12.9 kmh 30.08 in1018.6 mb 0.00 in0.0 mm 0.00 in0.0 mm 0.05 in1.3 mm
03:23 PM 43.7°F6.5°C 9.3°F-12.6°C 24% 4.0 mph SSW6.4 kmh SSW 8.0 mph12.9 kmh 30.09 in1019.0 mb 0.00 in0.0 mm 0.00 in0.0 mm 0.05 in1.3 mm
03:44 PM 44.8°F7.1°C 9.3°F-12.6°C 23% 2.0 mph E3.2 kmh E 3.0 mph4.8 kmh 30.06 in1017.9 mb 0.00 in0.0 mm 0.00 in0.0 mm 0.05 in1.3 mm
04:05 PM 42.4°F5.8°C 8.2°F-13.2°C 24% 4.0 mph SW6.4 kmh SW 6.0 mph9.7 kmh 30.07 in1018.3 mb 0.00 in0.0 mm 0.00 in0.0 mm 0.05 in1.3 mm
04:26 PM 43.9°F6.6°C 9.5°F-12.5°C 24% 4.0 mph SW6.4 kmh SW 6.0 mph9.7 kmh 30.05 in1017.6 mb 0.00 in0.0 mm 0.00 in0.0 mm 0.05 in1.3 mm
04:47 PM 43.2°F6.2°C 8.8°F-12.9°C 24% 2.0 mph SW3.2 kmh SW 2.0 mph3.2 kmh 30.05 in1017.6 mb 0.00 in0.0 mm 0.00 in0.0 mm 0.05 in1.3 mm
05:08 PM 38.5°F3.6°C 9.0°F-12.8°C 29% 3.0 mph SW4.8 kmh SW 4.0 mph6.4 kmh 30.10 in1019.3 mb 0.00 in0.0 mm 0.00 in0.0 mm 0.05 in1.3 mm
05:29 PM 36.3°F2.4°C 7.9°F-13.4°C 30% 2.0 mph SW3.2 kmh SW 3.0 mph4.8 kmh 30.12 in1020.0 mb 0.00 in0.0 mm 0.00 in0.0 mm 0.05 in1.3 mm
05:50 PM 36.0°F2.2°C 9.0°F-12.8°C 32% Calm Calm -- 30.12 in1020.0 mb 0.00 in0.0 mm 0.00 in0.0 mm 0.05 in1.3 mm
06:11 PM 34.9°F1.6°C 11.3°F-11.5°C 37% 1.0 mph SW1.6 kmh SW 2.0 mph3.2 kmh 30.13 in1020.3 mb 0.00 in0.0 mm 0.00 in0.0 mm 0.05 in1.3 mm
06:32 PM 33.6°F0.9°C 11.3°F-11.5°C 39% 2.0 mph SW3.2 kmh SW 2.0 mph3.2 kmh 30.15 in1021.0 mb 0.00 in0.0 mm 0.00 in0.0 mm 0.05 in1.3 mm
06:53 PM 32.5°F0.3°C 13.6°F-10.2°C 45% 1.0 mph NE1.6 kmh NE 2.0 mph3.2 kmh 30.17 in1021.7 mb 0.00 in0.0 mm 0.00 in0.0 mm 0.05 in1.3 mm
07:14 PM 31.8°F-0.1°C 14.4°F-9.8°C 48% 1.0 mph NE1.6 kmh NE 2.0 mph3.2 kmh 30.18 in1022.0 mb 0.00 in0.0 mm 0.00 in0.0 mm 0.05 in1.3 mm
07:35 PM 31.1°F-0.5°C 14.7°F-9.6°C 50% 1.0 mph NE1.6 kmh NE 2.0 mph3.2 kmh 30.19 in1022.4 mb 0.00 in0.0 mm 0.00 in0.0 mm 0.05 in1.3 mm
07:56 PM 30.4°F-0.9°C 15.3°F-9.3°C 53% 2.0 mph 3.2 kmh 2.0 mph3.2 kmh 30.19 in1022.4 mb 0.00 in0.0 mm 0.00 in0.0 mm 0.05 in1.3 mm
08:17 PM 30.4°F-0.9°C 15.7°F-9.1°C 54% 1.0 mph WSW1.6 kmh WSW 2.0 mph3.2 kmh 30.18 in1022.0 mb 0.00 in0.0 mm 0.00 in0.0 mm 0.05 in1.3 mm
08:38 PM 30.9°F-0.6°C 14.0°F-10.0°C 49% Calm Calm 2.0 mph3.2 kmh 30.19 in1022.4 mb 0.00 in0.0 mm 0.00 in0.0 mm 0.05 in1.3 mm
08:59 PM 30.6°F-0.8°C 13.7°F-10.2°C 49% Calm Calm 1.0 mph1.6 kmh 30.20 in1022.7 mb 0.00 in0.0 mm 0.00 in0.0 mm 0.05 in1.3 mm
09:20 PM 29.7°F-1.3°C 15.1°F-9.4°C 54% 1.0 mph W1.6 kmh W 2.0 mph3.2 kmh 30.21 in1023.0 mb 0.00 in0.0 mm 0.00 in0.0 mm 0.05 in1.3 mm
09:41 PM 29.3°F-1.5°C 15.6°F-9.1°C 56% 1.0 mph 1.6 kmh 2.0 mph3.2 kmh 30.21 in1023.0 mb 0.00 in0.0 mm 0.00 in0.0 mm 0.05 in1.3 mm
10:02 PM 29.8°F-1.2°C 15.7°F-9.1°C 55% 2.0 mph E3.2 kmh E 3.0 mph4.8 kmh 30.19 in1022.4 mb 0.00 in0.0 mm 0.00 in0.0 mm 0.05 in1.3 mm
10:23 PM 30.4°F-0.9°C 15.3°F-9.3°C 53% 1.0 mph E1.6 kmh E 2.0 mph3.2 kmh 30.19 in1022.4 mb 0.00 in0.0 mm 0.00 in0.0 mm 0.05 in1.3 mm
10:44 PM 30.0°F-1.1°C 16.2°F-8.8°C 56% 1.0 mph E1.6 kmh E 2.0 mph3.2 kmh 30.19 in1022.4 mb 0.00 in0.0 mm 0.00 in0.0 mm 0.05 in1.3 mm
11:05 PM 29.8°F-1.2°C 16.1°F-8.8°C 56% 3.0 mph E4.8 kmh E 4.0 mph6.4 kmh 30.18 in1022.0 mb 0.00 in0.0 mm 0.00 in0.0 mm 0.05 in1.3 mm
11:26 PM 30.9°F-0.6°C 15.4°F-9.2°C 52% 2.0 mph 3.2 kmh 4.0 mph6.4 kmh 30.15 in1021.0 mb 0.00 in0.0 mm 0.00 in0.0 mm 0.05 in1.3 mm
11:47 PM 30.4°F-0.9°C 15.7°F-9.1°C 54% 2.0 mph 3.2 kmh 3.0 mph4.8 kmh 30.14 in1020.7 mb 0.00 in0.0 mm 0.00 in0.0 mm 0.05 in1.3 mm